Time;durP1;ratioP1;P1;durP2;ratioP2;P2;SDS_P1;SDS_P2;PMS_P1;PMS_P2;Temp;Humidity;BMP_temperature;BMP_pressure;BME280_temperature;BME280_humidity;BME280_pressure;Samples;Min_cycle;Max_cycle;Signal;HPM_P1;HPM_P2
2021/05/11 00:00:38;;;;;;;9.98;2.92;;;16.10;85.10;;;;;;5000545;28;20038;-79
2021/05/11 00:03:12;;;;;;;9.50;2.90;;;15.80;85.60;;;;;;5020044;28;20061;-89
2021/05/11 00:05:40;;;;;;;5.03;2.42;;;15.80;85.80;;;;;;5014439;28;20041;-78
2021/05/11 00:08:07;;;;;;;2.60;1.20;;;15.90;85.70;;;;;;5029720;28;20050;-78
2021/05/11 00:10:34;;;;;;;3.25;2.10;;;15.90;87.40;;;;;;5014788;28;20706;-78
2021/05/11 00:13:02;;;;;;;12.45;2.67;;;15.80;89.20;;;;;;5014849;28;20407;-78
2021/05/11 00:15:29;;;;;;;4.00;2.60;;;15.80;91.00;;;;;;5013557;28;20522;-78
2021/05/11 00:18:15;;;;;;;1.95;1.85;;;15.90;91.80;;;;;;5012969;28;20054;-90
2021/05/11 00:20:50;;;;;;;7.95;3.08;;;15.90;92.20;;;;;;5025386;28;20045;-79
2021/05/11 00:23:18;;;;;;;6.50;3.13;;;15.90;93.50;;;;;;5032517;28;20053;-78
2021/05/11 00:25:45;;;;;;;8.90;3.35;;;15.80;94.80;;;;;;5032490;28;20045;-79
2021/05/11 00:28:13;;;;;;;2.88;2.67;;;15.80;96.20;;;;;;5030378;28;20038;-78
2021/05/11 00:30:40;;;;;;;5.13;3.30;;;15.70;96.20;;;;;;5031861;28;20045;-78
2021/05/11 00:33:09;;;;;;;2.55;2.20;;;15.50;97.50;;;;;;5030815;28;20041;-78
2021/05/11 00:35:36;;;;;;;3.53;2.45;;;15.30;98.30;;;;;;5023127;28;20058;-78
2021/05/11 00:38:03;;;;;;;3.42;3.13;;;15.30;98.40;;;;;;5011105;28;20053;-79
2021/05/11 00:40:31;;;;;;;2.47;2.28;;;15.20;98.70;;;;;;5010063;28;20392;-79
2021/05/11 00:42:58;;;;;;;2.88;2.63;;;15.10;99.00;;;;;;5011960;28;20403;-79
2021/05/11 00:45:29;;;;;;;3.85;3.10;;;15.00;99.10;;;;;;5011941;28;20046;-78
2021/05/11 00:47:56;;;;;;;2.13;1.80;;;15.00;99.30;;;;;;5011285;28;20049;-78
2021/05/11 00:50:24;;;;;;;4.32;2.92;;;14.90;99.60;;;;;;5009519;28;20518;-79
2021/05/11 00:52:52;;;;;;;13.00;4.30;;;14.80;99.40;;;;;;5012009;28;20415;-78
2021/05/11 00:55:19;;;;;;;2.95;2.75;;;14.80;99.30;;;;;;5012780;28;20130;-78
2021/05/11 00:57:48;;;;;;;3.50;3.25;;;14.70;99.50;;;;;;5018670;28;20339;-78
2021/05/11 01:00:15;;;;;;;5.82;2.25;;;14.70;99.60;;;;;;5020349;28;20042;-78
2021/05/11 01:02:43;;;;;;;14.57;3.83;;;14.60;99.50;;;;;;5026677;28;20060;-78
2021/05/11 01:05:11;;;;;;;3.20;2.05;;;14.50;99.40;;;;;;5009716;28;20075;-78
2021/05/11 01:07:39;;;;;;;2.58;2.38;;;14.50;99.50;;;;;;4996173;28;20073;-78
2021/05/11 01:10:06;;;;;;;2.03;1.83;;;14.50;99.50;;;;;;5009285;28;20822;-78
2021/05/11 01:12:34;;;;;;;1.73;1.45;;;14.50;99.40;;;;;;5009971;28;20526;-78
2021/05/11 01:15:01;;;;;;;4.03;3.63;;;14.50;99.40;;;;;;5010582;28;20058;-78
2021/05/11 01:17:33;;;;;;;4.15;2.30;;;14.40;99.30;;;;;;5008548;28;20065;-78
2021/05/11 01:20:04;;;;;;;2.65;2.10;;;14.30;99.70;;;;;;5009252;28;20061;-78
2021/05/11 01:25:15;;;;;;;3.88;2.03;;;14.00;99.90;;;;;;5009728;28;20053;-78
2021/05/11 01:44:14;;;;;;;1.75;1.05;;;13.70;99.90;;;;;;5028668;28;20084;-78
2021/05/11 01:49:24;;;;;;;2.10;1.90;;;13.60;99.90;;;;;;5013378;28;20313;-78
2021/05/11 01:54:40;;;;;;;3.22;1.60;;;13.50;99.90;;;;;;5011268;28;20058;-78
2021/05/11 02:24:42;;;;;;;2.70;1.38;;;13.00;99.90;;;;;;5028552;28;20041;-79
2021/05/11 02:27:10;;;;;;;2.05;1.52;;;12.90;99.90;;;;;;5012076;28;20053;-88
2021/05/11 02:29:38;;;;;;;2.47;2.05;;;12.90;99.90;;;;;;5012252;28;20041;-82
2021/05/11 02:32:06;;;;;;;3.38;1.17;;;12.70;99.90;;;;;;5027803;28;20430;-85
2021/05/11 02:34:33;;;;;;;1.13;1.02;;;12.70;99.90;;;;;;5029538;28;20064;-84
2021/05/11 02:37:01;;;;;;;3.25;1.50;;;12.70;99.90;;;;;;5010168;28;20042;-84
2021/05/11 02:39:28;;;;;;;1.60;0.77;;;12.70;99.90;;;;;;5009870;28;20479;-85
2021/05/11 02:41:55;;;;;;;1.38;1.15;;;12.70;99.90;;;;;;5009148;28;20053;-87
2021/05/11 02:44:23;;;;;;;1.02;0.90;;;12.70;99.90;;;;;;5009916;28;20042;-85
2021/05/11 02:46:50;;;;;;;0.98;0.90;;;12.70;99.90;;;;;;5009451;28;20076;-86
2021/05/11 02:49:20;;;;;;;2.58;1.38;;;12.60;99.90;;;;;;5009548;28;20061;-85
2021/05/11 02:51:47;;;;;;;5.22;1.20;;;12.50;99.90;;;;;;5006969;28;20053;-84
2021/05/11 02:54:15;;;;;;;0.85;0.77;;;12.50;99.90;;;;;;5007514;28;20046;-84
2021/05/11 02:56:42;;;;;;;0.85;0.80;;;12.50;99.90;;;;;;5009704;28;20046;-84
2021/05/11 02:59:10;;;;;;;1.25;1.15;;;12.50;99.90;;;;;;5011775;28;20061;-86
2021/05/11 03:01:37;;;;;;;1.08;1.00;;;12.40;99.90;;;;;;5008574;28;20042;-84
2021/05/11 03:04:05;;;;;;;1.50;1.48;;;12.40;99.90;;;;;;5007809;28;20056;-85
2021/05/11 03:06:33;;;;;;;1.60;1.50;;;12.30;99.90;;;;;;5007052;28;20050;-83
2021/05/11 03:09:00;;;;;;;0.70;0.70;;;12.30;99.90;;;;;;5008532;28;20288;-86
2021/05/11 03:11:28;;;;;;;0.93;0.93;;;12.20;99.90;;;;;;5007864;28;20061;-85
2021/05/11 03:13:55;;;;;;;2.38;2.00;;;12.20;99.90;;;;;;5008001;28;20057;-84
2021/05/11 03:16:24;;;;;;;1.38;1.15;;;12.20;99.90;;;;;;4991929;28;20042;-84
2021/05/11 03:18:51;;;;;;;0.98;0.98;;;12.10;99.90;;;;;;4991015;28;20212;-86
2021/05/11 03:21:19;;;;;;;2.20;1.13;;;12.00;99.90;;;;;;4989772;28;20053;-85
2021/05/11 03:23:47;;;;;;;2.10;0.82;;;12.00;99.90;;;;;;5008401;28;20407;-84
2021/05/11 03:26:14;;;;;;;1.27;0.70;;;12.00;99.90;;;;;;5009544;28;20042;-85
2021/05/11 03:28:42;;;;;;;0.77;0.77;;;12.00;99.90;;;;;;5007680;28;20045;-84
2021/05/11 03:31:09;;;;;;;2.72;1.02;;;11.90;99.90;;;;;;5009797;28;20054;-84
2021/05/11 03:33:37;;;;;;;1.10;1.00;;;11.90;99.90;;;;;;5026018;28;20034;-86
2021/05/11 03:36:05;;;;;;;0.95;0.90;;;11.90;99.90;;;;;;5032009;28;20068;-85
2021/05/11 03:38:32;;;;;;;0.95;0.95;;;11.80;99.90;;;;;;5032996;28;20061;-86
2021/05/11 03:41:00;;;;;;;2.85;1.65;;;11.80;99.90;;;;;;5030931;28;20050;-85
2021/05/11 03:43:34;;;;;;;1.42;0.95;;;11.70;99.90;;;;;;5033200;28;20049;-84
2021/05/11 03:46:06;;;;;;;1.92;1.10;;;11.60;99.90;;;;;;5033277;28;20034;-86
2021/05/11 03:48:34;;;;;;;2.92;2.05;;;11.60;99.90;;;;;;5030459;28;20042;-84
2021/05/11 03:51:05;;;;;;;5.65;1.15;;;11.60;99.90;;;;;;5031719;28;20092;-85
2021/05/11 03:53:33;;;;;;;1.48;1.38;;;11.60;99.90;;;;;;5032729;28;20064;-85
2021/05/11 03:56:02;;;;;;;1.35;0.90;;;11.50;99.90;;;;;;5032723;28;20053;-86
2021/05/11 03:58:30;;;;;;;0.82;0.80;;;11.40;99.90;;;;;;5014949;28;20391;-84
2021/05/11 04:00:58;;;;;;;0.95;0.95;;;11.40;99.90;;;;;;5031977;28;20140;-84
2021/05/11 04:03:26;;;;;;;8.07;1.98;;;11.40;99.90;;;;;;5032103;28;20515;-87
2021/05/11 04:05:56;;;;;;;1.50;1.00;;;11.40;99.90;;;;;;5030001;28;20414;-85
2021/05/11 04:16:28;;;;;;;1.55;1.38;;;11.30;99.90;;;;;;5031820;28;20049;-86
2021/05/11 04:18:57;;;;;;;10.35;2.40;;;11.30;99.90;;;;;;5032029;28;20427;-86
2021/05/11 04:21:25;;;;;;;0.75;0.75;;;11.30;99.90;;;;;;5030446;28;20049;-83
2021/05/11 04:23:54;;;;;;;2.70;1.08;;;11.40;99.90;;;;;;5032141;28;20060;-87
2021/05/11 04:26:23;;;;;;;1.35;1.33;;;11.40;99.90;;;;;;5032431;28;20057;-86
2021/05/11 04:28:51;;;;;;;1.67;0.80;;;11.40;99.90;;;;;;5031710;28;20422;-83
2021/05/11 04:31:20;;;;;;;1.15;0.77;;;11.40;99.90;;;;;;5031650;28;20049;-86
2021/05/11 04:33:48;;;;;;;1.00;0.90;;;11.40;99.90;;;;;;5029443;28;20041;-85
2021/05/11 04:36:56;;;;;;;0.82;0.73;;;11.40;99.90;;;;;;5030786;28;20037;-86
2021/05/11 04:39:24;;;;;;;2.15;0.90;;;11.30;99.90;;;;;;5033514;28;20057;-86
2021/05/11 04:41:52;;;;;;;0.80;0.80;;;11.30;99.90;;;;;;5034052;28;20049;-85
2021/05/11 04:44:21;;;;;;;2.20;2.10;;;11.30;99.90;;;;;;5034346;28;20061;-86
2021/05/11 04:46:58;;;;;;;0.80;0.80;;;11.30;99.90;;;;;;5038861;28;20060;-86
2021/05/11 04:49:26;;;;;;;1.27;1.17;;;11.30;99.90;;;;;;5054140;28;20049;-87
2021/05/11 04:51:54;;;;;;;0.70;0.70;;;11.40;99.90;;;;;;5054633;28;20075;-85
2021/05/11 04:54:22;;;;;;;0.93;0.93;;;11.40;99.90;;;;;;5055605;28;20053;-85
2021/05/11 04:56:51;;;;;;;1.50;1.10;;;11.40;99.90;;;;;;5051240;28;20037;-87
2021/05/11 04:59:22;;;;;;;1.38;1.05;;;11.40;99.90;;;;;;5032654;28;20049;-88
2021/05/11 05:01:56;;;;;;;2.88;1.58;;;11.20;99.90;;;;;;5032445;28;20503;-88
2021/05/11 05:04:25;;;;;;;2.45;1.80;;;11.20;99.90;;;;;;5031685;28;20050;-88
2021/05/11 05:06:54;;;;;;;3.67;1.40;;;11.10;99.90;;;;;;5013117;28;20503;-82
2021/05/11 05:09:22;;;;;;;0.90;0.90;;;11.10;99.90;;;;;;5010025;28;20507;-84
2021/05/11 05:11:50;;;;;;;0.93;0.73;;;11.20;99.90;;;;;;5009514;28;20061;-82
2021/05/11 05:14:17;;;;;;;1.08;1.05;;;11.40;99.90;;;;;;5011855;28;20068;-82
2021/05/11 05:16:45;;;;;;;1.90;0.90;;;11.70;99.90;;;;;;5011172;28;20403;-83
2021/05/11 05:19:14;;;;;;;1.40;1.30;;;11.70;99.90;;;;;;5011374;28;20050;-83
2021/05/11 05:21:42;;;;;;;2.75;1.85;;;11.90;99.90;;;;;;5029275;28;20049;-84
2021/05/11 05:24:15;;;;;;;2.08;0.80;;;12.20;99.90;;;;;;5029239;28;20529;-83
2021/05/11 05:26:48;;;;;;;5.38;1.48;;;12.50;99.90;;;;;;5030085;28;20073;-82
2021/05/11 05:29:17;;;;;;;1.30;1.23;;;12.60;99.90;;;;;;5030979;28;20053;-82
2021/05/11 05:31:45;;;;;;;1.50;1.40;;;12.70;99.90;;;;;;5028780;28;20045;-78
2021/05/11 05:34:13;;;;;;;0.80;0.80;;;12.60;99.90;;;;;;5028120;28;20049;-80
2021/05/11 05:36:41;;;;;;;0.75;0.75;;;12.80;99.90;;;;;;5013464;28;20049;-81
2021/05/11 05:39:09;;;;;;;1.95;1.00;;;13.10;99.90;;;;;;5011575;28;20069;-79
2021/05/11 05:41:37;;;;;;;1.33;1.23;;;13.30;99.90;;;;;;5010528;28;20499;-88
2021/05/11 05:44:05;;;;;;;1.95;1.33;;;13.40;99.90;;;;;;5011059;28;20061;-83
2021/05/11 05:46:33;;;;;;;1.30;0.93;;;13.80;99.40;;;;;;5011168;28;20058;-86
2021/05/11 05:49:04;;;;;;;3.93;1.33;;;14.10;98.80;;;;;;5010994;28;20046;-80
2021/05/11 05:51:31;;;;;;;0.70;0.70;;;13.90;98.90;;;;;;5009949;28;20431;-85
2021/05/11 05:53:59;;;;;;;7.28;2.30;;;13.90;98.60;;;;;;5009649;28;20045;-81
2021/05/11 05:56:28;;;;;;;0.70;0.60;;;14.20;98.30;;;;;;5010989;28;20061;-83
2021/05/11 05:58:57;;;;;;;1.33;1.23;;;14.20;98.00;;;;;;5011470;28;20077;-85
2021/05/11 06:01:29;;;;;;;2.17;1.05;;;14.40;97.80;;;;;;5010026;28;20061;-81
2021/05/11 06:04:14;;;;;;;1.15;1.15;;;14.70;97.00;;;;;;5010347;28;20054;-81
2021/05/11 06:06:42;;;;;;;0.93;0.90;;;15.00;96.70;;;;;;5010296;28;20050;-81
2021/05/11 06:09:21;;;;;;;2.97;1.50;;;15.30;96.30;;;;;;5012929;28;20057;-80
2021/05/11 06:12:01;;;;;;;0.90;0.90;;;15.40;95.90;;;;;;5029293;28;20077;-87
2021/05/11 06:19:34;;;;;;;0.77;0.77;;;16.20;94.60;;;;;;5027455;28;20053;-88
2021/05/11 06:22:02;;;;;;;0.50;0.50;;;16.30;95.20;;;;;;5027235;28;20411;-86
2021/05/11 06:24:30;;;;;;;2.00;0.88;;;15.70;95.20;;;;;;5028773;28;20490;-84
2021/05/11 06:26:58;;;;;;;0.93;0.90;;;15.50;94.90;;;;;;5029914;28;20085;-80
2021/05/11 06:29:28;;;;;;;1.45;1.35;;;15.10;96.10;;;;;;5026695;28;20033;-81
2021/05/11 06:31:56;;;;;;;7.18;0.82;;;14.80;96.90;;;;;;5026591;28;20057;-80
2021/05/11 06:34:24;;;;;;;0.68;0.60;;;14.50;98.30;;;;;;5025724;28;20521;-81
2021/05/11 06:36:53;;;;;;;1.23;0.85;;;14.50;97.30;;;;;;5013016;28;20053;-80
2021/05/11 06:39:21;;;;;;;0.98;0.95;;;14.30;98.50;;;;;;5027134;28;20128;-82
2021/05/11 06:41:51;;;;;;;2.10;1.30;;;14.40;97.80;;;;;;5026383;28;20052;-81
2021/05/11 06:47:33;;;;;;;0.60;0.50;;;14.40;98.40;;;;;;5016271;28;20053;-80
2021/05/11 06:52:46;;;;;;;1.70;1.55;;;14.20;98.50;;;;;;5027769;28;20423;-82
2021/05/11 06:55:18;;;;;;;1.25;0.98;;;14.30;97.70;;;;;;5029404;28;20053;-81
2021/05/11 06:57:46;;;;;;;1.33;1.23;;;14.20;98.30;;;;;;5028387;28;20486;-81
2021/05/11 07:00:19;;;;;;;1.17;0.98;;;14.10;98.20;;;;;;5028047;28;20046;-82
2021/05/11 07:02:48;;;;;;;2.08;0.98;;;14.00;99.70;;;;;;5028325;28;20517;-82
2021/05/11 07:05:16;;;;;;;1.25;0.98;;;14.00;99.60;;;;;;5026038;28;20048;-82
2021/05/11 07:07:44;;;;;;;1.30;0.80;;;14.00;99.30;;;;;;5027861;28;20053;-81
2021/05/11 07:10:34;;;;;;;0.73;0.73;;;14.20;99.00;;;;;;5024114;28;20038;-82
2021/05/11 07:13:21;;;;;;;1.20;1.10;;;14.20;99.60;;;;;;5010001;28;20045;-82
2021/05/11 07:15:52;;;;;;;15.35;2.15;;;14.30;99.10;;;;;;5026712;28;20299;-81
2021/05/11 07:18:23;;;;;;;;;;;14.50;99.00;;;;;;5027077;28;20050;-81
2021/05/11 07:20:59;;;;;;;1.17;1.07;;;14.60;98.60;;;;;;5008834;28;20359;-82
2021/05/11 07:23:28;;;;;;;3.40;1.23;;;14.50;98.40;;;;;;5028215;28;20304;-81
2021/05/11 07:31:28;;;;;;;2.47;1.38;;;14.20;98.90;;;;;;5027656;28;20049;-81
2021/05/11 07:33:57;;;;;;;2.88;1.02;;;14.30;98.70;;;;;;5023037;28;20076;-82
2021/05/11 07:36:25;;;;;;;2.33;1.33;;;14.40;98.60;;;;;;5012335;28;20042;-81
2021/05/11 07:38:53;;;;;;;4.38;2.25;;;14.40;98.80;;;;;;5009223;28;20058;-81
2021/05/11 07:41:21;;;;;;;1.85;1.75;;;14.30;98.70;;;;;;5007708;28;20053;-82
2021/05/11 07:43:54;;;;;;;1.15;1.05;;;14.30;98.90;;;;;;5006622;28;20046;-82
2021/05/11 08:15:49;;;;;;;1.67;1.52;;;14.40;99.30;;;;;;5028242;28;20052;-81
2021/05/11 08:29:23;;;;;;;9.32;1.27;;;15.60;97.30;;;;;;5029275;28;20045;-82
2021/05/11 08:31:50;;;;;;;2.75;0.95;;;15.90;96.90;;;;;;5029965;28;20062;-81
2021/05/11 08:34:19;;;;;;;1.58;1.48;;;16.00;96.40;;;;;;5031184;28;20330;-82
2021/05/11 08:36:47;;;;;;;1.15;1.10;;;16.20;96.20;;;;;;5012262;28;20603;-82
2021/05/11 08:39:20;;;;;;;1.13;0.82;;;16.50;96.50;;;;;;5012118;28;20418;-82
2021/05/11 08:41:48;;;;;;;1.27;1.17;;;16.60;94.80;;;;;;5010862;28;20056;-82
2021/05/11 08:44:17;;;;;;;0.90;0.80;;;16.70;96.30;;;;;;5018137;28;20055;-82
2021/05/11 08:46:45;;;;;;;3.58;1.55;;;16.70;96.00;;;;;;5029650;28;20049;-82
2021/05/11 08:49:15;;;;;;;2.20;1.17;;;16.70;95.40;;;;;;5026145;28;20045;-82
2021/05/11 08:51:53;;;;;;;2.53;1.15;;;16.60;96.40;;;;;;5029952;28;20053;-82
2021/05/11 09:05:36;;;;;;;3.63;2.35;;;16.50;96.30;;;;;;5029944;28;20042;-81
2021/05/11 09:08:13;;;;;;;5.68;2.22;;;16.20;97.30;;;;;;5030961;28;20057;-81
2021/05/11 09:33:46;;;;;;;;;;;15.60;98.30;;;;;;5024959;28;20053;-79
2021/05/11 09:45:47;;;;;;;1.23;0.65;;;15.60;99.50;;;;;;5027428;28;20053;-81
2021/05/11 10:46:57;;;;;;;5.32;2.70;;;15.40;99.90;;;;;;5030057;28;20057;-83
2021/05/11 10:49:40;;;;;;;6.90;2.97;;;15.40;99.90;;;;;;5028031;28;20075;-82
2021/05/11 10:52:41;;;;;;;4.15;3.13;;;15.40;99.90;;;;;;5028462;28;20052;-82
2021/05/11 10:55:16;;;;;;;4.78;2.65;;;15.40;99.90;;;;;;5029803;28;20483;-83
2021/05/11 10:57:54;;;;;;;2.75;2.55;;;15.60;99.90;;;;;;5028440;28;20049;-83
2021/05/11 11:00:25;;;;;;;2.85;2.45;;;15.80;99.90;;;;;;5028465;28;20399;-84
2021/05/11 11:03:19;;;;;;;3.58;2.85;;;15.80;99.70;;;;;;5029225;28;20056;-83
2021/05/11 11:05:52;;;;;;;2.35;2.13;;;15.80;99.60;;;;;;5028348;28;20049;-80
2021/05/11 11:08:42;;;;;;;6.10;3.33;;;15.80;99.60;;;;;;4996301;28;20487;-80
2021/05/11 11:11:20;;;;;;;2.53;2.33;;;16.00;99.90;;;;;;5009547;28;20076;-80
2021/05/11 11:13:52;;;;;;;3.13;2.90;;;16.00;99.90;;;;;;4988679;28;20045;-81
2021/05/11 11:16:40;;;;;;;2.92;2.72;;;16.20;99.90;;;;;;5006209;28;20064;-80
2021/05/11 11:19:09;;;;;;;5.38;2.85;;;16.30;99.00;;;;;;5035020;28;20057;-79
2021/05/11 11:21:59;;;;;;;3.90;3.28;;;16.30;99.60;;;;;;5029257;28;20049;-83
2021/05/11 11:24:37;;;;;;;3.30;3.08;;;16.40;99.20;;;;;;5029120;28;20038;-81
2021/05/11 11:27:05;;;;;;;4.65;3.00;;;16.80;99.40;;;;;;5030502;28;20422;-82
2021/05/11 11:29:33;;;;;;;4.78;2.95;;;17.10;98.70;;;;;;5019366;28;20053;-82
2021/05/11 11:32:01;;;;;;;3.50;3.20;;;17.50;97.90;;;;;;5027869;28;20072;-81
2021/05/11 11:34:35;;;;;;;3.15;2.88;;;17.80;97.50;;;;;;5028914;28;20061;-80
2021/05/11 11:37:13;;;;;;;2.38;2.10;;;18.10;98.10;;;;;;5009041;28;20058;-80
2021/05/11 11:39:46;;;;;;;6.40;2.95;;;18.30;96.50;;;;;;5009574;28;20060;-81
2021/05/11 11:42:23;;;;;;;8.55;3.05;;;18.30;97.70;;;;;;5010065;28;20054;-80
2021/05/11 11:44:58;;;;;;;3.60;2.42;;;18.40;96.50;;;;;;5009850;28;20069;-79
2021/05/11 11:47:29;;;;;;;3.40;3.10;;;17.90;96.50;;;;;;5028287;28;20399;-80
2021/05/11 11:50:01;;;;;;;4.13;3.22;;;17.70;97.70;;;;;;5028913;28;20037;-82
2021/05/11 11:55:37;;;;;;;3.38;3.08;;;17.70;98.30;;;;;;5033116;28;20051;-80
2021/05/11 11:58:05;;;;;;;4.35;3.22;;;17.90;96.90;;;;;;5030819;28;20056;-80
2021/05/11 12:00:35;;;;;;;3.22;2.92;;;18.20;97.30;;;;;;5031333;28;20045;-79
2021/05/11 12:03:11;;;;;;;4.78;3.25;;;18.40;96.60;;;;;;5015688;28;20050;-80
2021/05/11 12:05:50;;;;;;;6.20;2.83;;;18.40;96.40;;;;;;5033056;28;20080;-79
2021/05/11 12:08:25;;;;;;;3.03;2.83;;;18.40;96.50;;;;;;5015188;28;20045;-80
2021/05/11 12:10:57;;;;;;;3.88;3.13;;;18.30;95.80;;;;;;5032278;28;20510;-81
2021/05/11 12:13:31;;;;;;;4.47;3.25;;;18.40;96.40;;;;;;4998925;28;20045;-80
2021/05/11 12:16:18;;;;;;;2.78;2.45;;;18.60;96.20;;;;;;5015389;28;20057;-80
2021/05/11 12:19:09;;;;;;;6.28;3.25;;;18.70;95.80;;;;;;5031672;28;20053;-81
2021/05/11 12:21:54;;;;;;;9.38;4.20;;;18.60;96.70;;;;;;5029270;28;20053;-79
2021/05/11 12:24:26;;;;;;;3.85;2.88;;;18.40;97.70;;;;;;5014929;28;20041;-80
2021/05/11 12:27:11;;;;;;;6.45;4.05;;;18.30;97.10;;;;;;5033383;28;20491;-80
2021/05/11 12:30:08;;;;;;;4.38;2.85;;;18.40;98.50;;;;;;5030188;28;20053;-81
2021/05/11 12:32:37;;;;;;;5.25;3.03;;;18.60;96.80;;;;;;5014399;28;20045;-80
2021/05/11 12:35:13;;;;;;;4.70;2.97;;;18.50;95.90;;;;;;5032133;28;20071;-79
2021/05/11 12:37:54;;;;;;;6.78;3.50;;;18.40;96.00;;;;;;5030867;28;20054;-82
2021/05/11 12:40:40;;;;;;;3.23;2.40;;;18.50;96.80;;;;;;5011501;28;20038;-83
2021/05/11 12:43:08;;;;;;;3.63;3.20;;;18.60;96.90;;;;;;5012610;28;20398;-83
2021/05/11 12:45:53;;;;;;;3.30;2.45;;;18.80;96.70;;;;;;5016426;28;20057;-82
2021/05/11 12:48:21;;;;;;;7.10;3.20;;;18.90;96.00;;;;;;5027031;28;20050;-79
2021/05/11 12:50:49;;;;;;;5.45;2.65;;;18.70;96.20;;;;;;5019400;28;20046;-83
2021/05/11 12:53:27;;;;;;;3.75;3.35;;;18.80;97.30;;;;;;5013465;28;20033;-82
2021/05/11 12:56:12;;;;;;;6.65;2.97;;;18.90;96.60;;;;;;5025727;28;20077;-76
2021/05/11 12:59:09;;;;;;;2.53;2.33;;;19.10;95.60;;;;;;5020857;28;20057;-75
2021/05/11 13:15:59;;;;;;;5.38;4.88;;;19.10;95.10;;;;;;5030501;28;20064;-76
2021/05/11 13:21:33;;;;;;;5.63;3.70;;;18.60;94.80;;;;;;5031304;28;20042;-79
2021/05/11 13:27:05;;;;;;;6.53;3.70;;;19.40;95.50;;;;;;5032328;28;20065;-74
2021/05/11 13:32:12;;;;;;;6.72;4.10;;;19.10;95.10;;;;;;5013260;28;20483;-73
2021/05/11 13:34:40;;;;;;;3.22;2.63;;;18.90;93.40;;;;;;5031917;28;20061;-72
2021/05/11 13:37:08;;;;;;;5.18;4.35;;;18.60;94.10;;;;;;5031330;28;20049;-74
2021/05/11 13:39:36;;;;;;;4.10;3.63;;;18.40;93.70;;;;;;5030717;28;20057;-76
2021/05/11 13:42:04;;;;;;;4.00;3.22;;;18.20;95.30;;;;;;5030826;28;20045;-77
2021/05/11 13:44:32;;;;;;;4.72;3.08;;;18.10;95.70;;;;;;5029868;28;20048;-76
2021/05/11 13:46:59;;;;;;;3.80;2.53;;;18.10;94.90;;;;;;5031472;28;20068;-76
2021/05/11 13:49:29;;;;;;;6.70;2.75;;;18.00;95.00;;;;;;5031289;28;20487;-76
2021/05/11 13:51:57;;;;;;;3.03;2.40;;;17.90;94.70;;;;;;5030805;28;20494;-76
2021/05/11 13:54:25;;;;;;;3.80;2.55;;;18.00;94.90;;;;;;5031919;28;20060;-78
2021/05/11 14:04:56;;;;;;;6.90;4.47;;;17.60;95.30;;;;;;5031064;28;20076;-76
2021/05/11 14:07:24;;;;;;;5.88;4.30;;;17.40;95.60;;;;;;5030249;28;20410;-76
2021/05/11 14:09:52;;;;;;;4.97;4.45;;;17.20;95.70;;;;;;5029343;28;20049;-77
2021/05/11 14:12:19;;;;;;;4.18;3.78;;;17.30;96.00;;;;;;5029688;28;20052;-76
2021/05/11 14:14:47;;;;;;;10.40;4.88;;;17.30;96.30;;;;;;5030973;28;20049;-81
2021/05/11 14:17:16;;;;;;;5.45;4.50;;;17.20;96.20;;;;;;5029686;28;20048;-80
2021/05/11 14:19:46;;;;;;;6.32;4.63;;;17.10;95.80;;;;;;5030035;28;20064;-79
2021/05/11 14:22:14;;;;;;;13.32;4.57;;;17.10;96.20;;;;;;5028856;28;20049;-81
2021/05/11 14:24:43;;;;;;;6.65;4.72;;;17.00;96.10;;;;;;5013221;28;20507;-82
2021/05/11 14:27:10;;;;;;;8.10;5.20;;;17.00;96.00;;;;;;5032070;28;20402;-84
2021/05/11 14:29:39;;;;;;;5.50;5.00;;;17.20;96.70;;;;;;5009891;28;20037;-80
2021/05/11 14:32:06;;;;;;;4.97;3.42;;;17.30;97.70;;;;;;5030788;28;20066;-82
2021/05/11 14:34:35;;;;;;;4.93;4.22;;;17.40;96.50;;;;;;5013777;28;20049;-83
2021/05/11 14:37:04;;;;;;;3.60;3.28;;;17.30;96.30;;;;;;5030848;28;20049;-82
2021/05/11 14:39:32;;;;;;;4.93;3.88;;;17.20;95.90;;;;;;5031563;28;20060;-83
2021/05/11 14:41:59;;;;;;;5.03;3.63;;;17.30;96.60;;;;;;5031231;28;20037;-82
2021/05/11 14:44:27;;;;;;;4.68;4.05;;;17.20;95.60;;;;;;5030743;28;20045;-81
2021/05/11 14:46:56;;;;;;;8.30;4.88;;;17.20;95.80;;;;;;5031575;28;20410;-83
2021/05/11 14:49:25;;;;;;;4.65;4.22;;;17.10;96.40;;;;;;5031052;28;20413;-82
2021/05/11 14:51:53;;;;;;;8.50;4.32;;;17.10;95.80;;;;;;5029275;28;20045;-80
2021/05/11 14:54:22;;;;;;;9.27;4.45;;;17.10;95.70;;;;;;5031106;28;20054;-83
2021/05/11 14:56:49;;;;;;;4.53;3.92;;;17.00;96.80;;;;;;5030707;28;20486;-81
2021/05/11 14:59:19;;;;;;;5.22;4.40;;;17.10;96.50;;;;;;5030669;28;20041;-80
2021/05/11 15:01:47;;;;;;;10.07;4.90;;;17.10;96.60;;;;;;5030117;28;20045;-83
2021/05/11 15:04:14;;;;;;;7.43;4.82;;;17.10;96.30;;;;;;5030452;28;20033;-81
2021/05/11 15:06:43;;;;;;;6.85;5.07;;;17.00;96.10;;;;;;5030554;28;20053;-83
2021/05/11 15:09:12;;;;;;;7.72;4.97;;;17.00;95.60;;;;;;5031247;28;20565;-82
2021/05/11 15:11:40;;;;;;;18.65;5.82;;;16.90;95.80;;;;;;5030957;28;20064;-82
2021/05/11 15:14:08;;;;;;;17.33;6.63;;;16.80;96.60;;;;;;5029324;28;20437;-83
2021/05/11 15:16:38;;;;;;;6.35;5.75;;;16.80;97.10;;;;;;5012120;28;20057;-85
2021/05/11 15:19:07;;;;;;;8.07;5.45;;;16.80;96.30;;;;;;5030276;28;20057;-81
2021/05/11 15:21:35;;;;;;;8.45;6.30;;;16.80;96.30;;;;;;4996124;28;20045;-82
2021/05/11 15:24:06;;;;;;;6.82;5.85;;;16.80;96.30;;;;;;5028997;28;20053;-81
2021/05/11 15:26:34;;;;;;;6.97;6.25;;;16.80;96.80;;;;;;5030334;28;20049;-80
2021/05/11 15:29:03;;;;;;;8.45;6.35;;;16.80;95.60;;;;;;5034253;28;20041;-79
2021/05/11 15:31:31;;;;;;;8.60;5.93;;;16.80;96.10;;;;;;5016658;28;20050;-81
2021/05/11 15:33:59;;;;;;;7.10;5.30;;;16.80;96.30;;;;;;5034007;28;20053;-80
2021/05/11 15:36:31;;;;;;;7.03;5.90;;;16.70;96.80;;;;;;5032143;28;20072;-86
2021/05/11 15:39:03;;;;;;;6.55;4.55;;;16.70;96.50;;;;;;5034661;28;20054;-83
2021/05/11 15:41:30;;;;;;;8.75;5.18;;;16.70;96.40;;;;;;5033977;28;20049;-82
2021/05/11 15:43:58;;;;;;;8.45;4.28;;;16.60;97.10;;;;;;5025390;28;20057;-80
2021/05/11 15:46:26;;;;;;;4.63;4.22;;;16.70;97.60;;;;;;5034257;28;20049;-80
2021/05/11 15:48:55;;;;;;;5.13;4.63;;;16.70;97.20;;;;;;5033721;28;20041;-80
2021/05/11 15:51:23;;;;;;;7.75;4.88;;;16.60;96.80;;;;;;5032765;28;20053;-84
2021/05/11 15:53:53;;;;;;;5.55;3.67;;;16.60;97.40;;;;;;5016741;28;20037;-86
2021/05/11 15:56:20;;;;;;;6.45;4.80;;;16.60;97.00;;;;;;5034039;28;20041;-83
2021/05/11 15:59:00;;;;;;;4.95;4.05;;;16.50;97.00;;;;;;5031891;28;20045;-87
2021/05/11 16:01:28;;;;;;;4.90;3.45;;;16.60;97.30;;;;;;5015730;28;20064;-83
2021/05/11 16:03:56;;;;;;;6.57;5.70;;;16.50;98.00;;;;;;5011899;28;20049;-78
2021/05/11 16:06:24;;;;;;;5.93;4.53;;;16.40;97.40;;;;;;5013084;28;20753;-83
2021/05/11 16:08:52;;;;;;;6.55;5.50;;;16.30;98.00;;;;;;5012807;28;20037;-82
2021/05/11 16:11:20;;;;;;;10.85;5.38;;;16.20;97.90;;;;;;5012884;28;20065;-83
2021/05/11 16:13:48;;;;;;;4.50;4.05;;;16.10;98.70;;;;;;5012351;28;20057;-85
2021/05/11 16:16:16;;;;;;;6.00;4.85;;;16.10;98.50;;;;;;5012133;28;20041;-81
2021/05/11 16:18:44;;;;;;;6.20;4.53;;;16.10;98.60;;;;;;5012435;28;20049;-83
2021/05/11 16:21:13;;;;;;;5.03;4.20;;;16.10;98.80;;;;;;5009528;28;20048;-82
2021/05/11 16:23:46;;;;;;;5.55;4.38;;;16.00;99.20;;;;;;5030277;28;20050;-83
2021/05/11 16:26:15;;;;;;;7.88;5.70;;;15.90;98.30;;;;;;5018493;28;20054;-86
2021/05/11 16:28:44;;;;;;;6.88;4.90;;;15.80;98.30;;;;;;5013688;28;20124;-83
2021/05/11 16:31:16;;;;;;;6.15;5.50;;;15.80;98.70;;;;;;5031386;28;20483;-87
2021/05/11 16:33:51;;;;;;;6.28;5.30;;;15.80;99.10;;;;;;5030800;28;20522;-85
2021/05/11 16:36:20;;;;;;;5.50;5.00;;;15.80;98.60;;;;;;5054340;28;20062;-81
2021/05/11 16:38:48;;;;;;;7.53;6.50;;;15.70;97.80;;;;;;5071582;28;20060;-81
2021/05/11 16:41:16;;;;;;;5.97;4.03;;;15.60;98.20;;;;;;5070291;28;20044;-86
2021/05/11 16:43:45;;;;;;;5.28;4.30;;;15.60;98.20;;;;;;5072299;28;20060;-81
2021/05/11 16:46:13;;;;;;;5.85;5.25;;;15.60;98.10;;;;;;5070814;28;20044;-79
2021/05/11 16:48:42;;;;;;;5.22;4.72;;;15.60;98.00;;;;;;5053123;28;20497;-81
2021/05/11 16:51:10;;;;;;;5.25;4.75;;;15.60;97.70;;;;;;5072161;28;20484;-86
2021/05/11 16:53:38;;;;;;;8.73;5.95;;;15.60;97.90;;;;;;5054206;28;20045;-85
2021/05/11 16:56:06;;;;;;;7.53;6.35;;;15.50;98.00;;;;;;5054386;28;20044;-84
2021/05/11 16:58:34;;;;;;;4.72;4.30;;;15.50;98.30;;;;;;5072052;28;20053;-84
2021/05/11 17:01:03;;;;;;;5.32;4.82;;;15.50;98.90;;;;;;5071749;28;20508;-82
2021/05/11 17:03:31;;;;;;;5.03;4.55;;;15.50;98.90;;;;;;5038430;28;20044;-81
2021/05/11 17:06:02;;;;;;;7.93;6.53;;;15.50;98.80;;;;;;5037094;28;20040;-86
2021/05/11 17:08:31;;;;;;;7.15;5.38;;;15.40;98.50;;;;;;5017465;28;20063;-82
2021/05/11 17:10:59;;;;;;;8.05;6.18;;;15.40;99.30;;;;;;5052720;28;20057;-82
2021/05/11 17:13:27;;;;;;;6.38;5.82;;;15.30;98.90;;;;;;5034975;28;20045;-81
2021/05/11 17:15:55;;;;;;;6.30;5.22;;;15.30;99.30;;;;;;5052708;28;20053;-80
2021/05/11 17:18:23;;;;;;;9.57;7.10;;;15.30;99.10;;;;;;5034985;28;20064;-89